sensor_id;sensor_type;location;lat;lon;timestamp;P1;durP1;ratioP1;P2;durP2;ratioP2
19456;SDS011;9867;48.094;11.478;2023-07-13T00:00:27;5.13;;;3.63;;
19456;SDS011;9867;48.094;11.478;2023-07-13T00:02:56;4.97;;;3.43;;
19456;SDS011;9867;48.094;11.478;2023-07-13T00:05:25;4.47;;;3.10;;
19456;SDS011;9867;48.094;11.478;2023-07-13T00:07:53;4.80;;;3.47;;
19456;SDS011;9867;48.094;11.478;2023-07-13T00:10:22;6.83;;;3.57;;
19456;SDS011;9867;48.094;11.478;2023-07-13T00:12:51;3.47;;;3.17;;
19456;SDS011;9867;48.094;11.478;2023-07-13T00:15:22;3.53;;;3.13;;
19456;SDS011;9867;48.094;11.478;2023-07-13T00:17:52;3.33;;;3.03;;
19456;SDS011;9867;48.094;11.478;2023-07-13T00:20:22;6.20;;;3.40;;
19456;SDS011;9867;48.094;11.478;2023-07-13T00:22:54;3.20;;;2.73;;
19456;SDS011;9867;48.094;11.478;2023-07-13T00:25:24;3.80;;;2.60;;
19456;SDS011;9867;48.094;11.478;2023-07-13T00:27:54;5.13;;;2.80;;
19456;SDS011;9867;48.094;11.478;2023-07-13T00:30:22;4.27;;;2.97;;
19456;SDS011;9867;48.094;11.478;2023-07-13T00:32:50;3.33;;;2.60;;
19456;SDS011;9867;48.094;11.478;2023-07-13T00:35:38;2.70;;;2.50;;
19456;SDS011;9867;48.094;11.478;2023-07-13T00:38:06;3.53;;;2.60;;
19456;SDS011;9867;48.094;11.478;2023-07-13T00:40:35;2.60;;;2.40;;
19456;SDS011;9867;48.094;11.478;2023-07-13T00:43:08;3.60;;;2.60;;
19456;SDS011;9867;48.094;11.478;2023-07-13T00:48:46;3.17;;;2.60;;
19456;SDS011;9867;48.094;11.478;2023-07-13T00:51:16;3.37;;;2.73;;
19456;SDS011;9867;48.094;11.478;2023-07-13T00:53:47;2.93;;;2.60;;
19456;SDS011;9867;48.094;11.478;2023-07-13T00:56:16;3.23;;;2.60;;
19456;SDS011;9867;48.094;11.478;2023-07-13T00:58:46;3.30;;;2.50;;
19456;SDS011;9867;48.094;11.478;2023-07-13T01:01:14;3.10;;;2.77;;
19456;SDS011;9867;48.094;11.478;2023-07-13T01:03:43;3.70;;;2.50;;
19456;SDS011;9867;48.094;11.478;2023-07-13T01:06:12;4.57;;;2.50;;
19456;SDS011;9867;48.094;11.478;2023-07-13T01:08:41;2.90;;;2.50;;
19456;SDS011;9867;48.094;11.478;2023-07-13T01:11:09;2.77;;;2.50;;
19456;SDS011;9867;48.094;11.478;2023-07-13T01:13:39;3.43;;;2.40;;
19456;SDS011;9867;48.094;11.478;2023-07-13T01:16:14;4.03;;;2.77;;
19456;SDS011;9867;48.094;11.478;2023-07-13T01:18:46;3.67;;;2.43;;
19456;SDS011;9867;48.094;11.478;2023-07-13T01:21:16;4.10;;;2.33;;
19456;SDS011;9867;48.094;11.478;2023-07-13T01:23:45;3.43;;;2.50;;
19456;SDS011;9867;48.094;11.478;2023-07-13T01:26:15;2.80;;;2.43;;
19456;SDS011;9867;48.094;11.478;2023-07-13T01:28:43;2.93;;;2.40;;
19456;SDS011;9867;48.094;11.478;2023-07-13T01:31:11;4.17;;;2.60;;
19456;SDS011;9867;48.094;11.478;2023-07-13T01:33:40;3.37;;;2.50;;
19456;SDS011;9867;48.094;11.478;2023-07-13T01:36:09;5.43;;;2.87;;
19456;SDS011;9867;48.094;11.478;2023-07-13T01:38:40;2.73;;;2.50;;
19456;SDS011;9867;48.094;11.478;2023-07-13T01:41:10;2.93;;;2.27;;
19456;SDS011;9867;48.094;11.478;2023-07-13T01:43:39;2.80;;;2.50;;
19456;SDS011;9867;48.094;11.478;2023-07-13T01:46:07;4.33;;;2.57;;
19456;SDS011;9867;48.094;11.478;2023-07-13T01:48:49;4.90;;;2.70;;
19456;SDS011;9867;48.094;11.478;2023-07-13T01:51:18;4.13;;;2.50;;
19456;SDS011;9867;48.094;11.478;2023-07-13T01:53:48;3.13;;;2.50;;
19456;SDS011;9867;48.094;11.478;2023-07-13T01:56:16;3.33;;;2.70;;
19456;SDS011;9867;48.094;11.478;2023-07-13T01:58:45;2.77;;;2.50;;
19456;SDS011;9867;48.094;11.478;2023-07-13T02:01:13;4.37;;;2.53;;
19456;SDS011;9867;48.094;11.478;2023-07-13T02:03:42;2.57;;;2.37;;
19456;SDS011;9867;48.094;11.478;2023-07-13T02:06:10;3.73;;;2.53;;
19456;SDS011;9867;48.094;11.478;2023-07-13T02:08:40;2.70;;;2.50;;
19456;SDS011;9867;48.094;11.478;2023-07-13T02:11:10;5.63;;;2.83;;
19456;SDS011;9867;48.094;11.478;2023-07-13T02:13:39;3.00;;;2.80;;
19456;SDS011;9867;48.094;11.478;2023-07-13T02:16:07;2.80;;;2.37;;
19456;SDS011;9867;48.094;11.478;2023-07-13T02:18:36;3.37;;;2.20;;
19456;SDS011;9867;48.094;11.478;2023-07-13T02:21:04;4.27;;;2.60;;
19456;SDS011;9867;48.094;11.478;2023-07-13T02:23:32;4.33;;;2.60;;
19456;SDS011;9867;48.094;11.478;2023-07-13T02:26:01;3.33;;;2.50;;
19456;SDS011;9867;48.094;11.478;2023-07-13T02:28:32;3.97;;;2.50;;
19456;SDS011;9867;48.094;11.478;2023-07-13T02:31:04;2.97;;;2.67;;
19456;SDS011;9867;48.094;11.478;2023-07-13T02:33:33;4.97;;;2.37;;
19456;SDS011;9867;48.094;11.478;2023-07-13T02:36:01;3.40;;;2.33;;
19456;SDS011;9867;48.094;11.478;2023-07-13T02:38:32;4.83;;;2.63;;
19456;SDS011;9867;48.094;11.478;2023-07-13T02:41:01;3.87;;;2.70;;
19456;SDS011;9867;48.094;11.478;2023-07-13T02:43:30;4.50;;;2.77;;
19456;SDS011;9867;48.094;11.478;2023-07-13T02:46:00;3.70;;;3.37;;
19456;SDS011;9867;48.094;11.478;2023-07-13T02:48:34;4.47;;;3.90;;
19456;SDS011;9867;48.094;11.478;2023-07-13T02:51:03;5.13;;;4.20;;
19456;SDS011;9867;48.094;11.478;2023-07-13T02:53:32;8.37;;;4.30;;
19456;SDS011;9867;48.094;11.478;2023-07-13T02:56:04;6.37;;;4.13;;
19456;SDS011;9867;48.094;11.478;2023-07-13T02:58:35;5.63;;;4.10;;
19456;SDS011;9867;48.094;11.478;2023-07-13T03:01:06;6.73;;;5.00;;
19456;SDS011;9867;48.094;11.478;2023-07-13T03:03:35;7.47;;;4.90;;
19456;SDS011;9867;48.094;11.478;2023-07-13T03:06:04;6.97;;;5.27;;
19456;SDS011;9867;48.094;11.478;2023-07-13T03:08:43;6.07;;;5.30;;
19456;SDS011;9867;48.094;11.478;2023-07-13T03:11:13;6.53;;;5.50;;
19456;SDS011;9867;48.094;11.478;2023-07-13T03:13:45;7.30;;;5.17;;
19456;SDS011;9867;48.094;11.478;2023-07-13T03:16:15;5.33;;;4.60;;
19456;SDS011;9867;48.094;11.478;2023-07-13T03:18:47;7.20;;;4.67;;
19456;SDS011;9867;48.094;11.478;2023-07-13T03:21:16;6.87;;;5.00;;
19456;SDS011;9867;48.094;11.478;2023-07-13T03:23:44;6.50;;;5.33;;
19456;SDS011;9867;48.094;11.478;2023-07-13T03:26:14;6.23;;;5.30;;
19456;SDS011;9867;48.094;11.478;2023-07-13T03:28:45;5.40;;;4.50;;
19456;SDS011;9867;48.094;11.478;2023-07-13T03:31:18;5.80;;;4.93;;
19456;SDS011;9867;48.094;11.478;2023-07-13T03:33:48;5.87;;;4.77;;
19456;SDS011;9867;48.094;11.478;2023-07-13T03:36:18;4.60;;;4.20;;
19456;SDS011;9867;48.094;11.478;2023-07-13T03:38:52;5.37;;;4.77;;
19456;SDS011;9867;48.094;11.478;2023-07-13T03:41:25;6.17;;;4.70;;
19456;SDS011;9867;48.094;11.478;2023-07-13T03:43:56;5.80;;;4.53;;
19456;SDS011;9867;48.094;11.478;2023-07-13T03:46:25;5.40;;;4.60;;
19456;SDS011;9867;48.094;11.478;2023-07-13T03:48:54;4.33;;;4.00;;
19456;SDS011;9867;48.094;11.478;2023-07-13T03:51:22;5.20;;;4.60;;
19456;SDS011;9867;48.094;11.478;2023-07-13T03:53:50;4.37;;;3.97;;
19456;SDS011;9867;48.094;11.478;2023-07-13T03:56:19;5.30;;;4.40;;
19456;SDS011;9867;48.094;11.478;2023-07-13T03:58:48;4.50;;;4.10;;
19456;SDS011;9867;48.094;11.478;2023-07-13T04:01:21;7.83;;;3.93;;
19456;SDS011;9867;48.094;11.478;2023-07-13T04:03:51;4.73;;;4.33;;
19456;SDS011;9867;48.094;11.478;2023-07-13T04:06:22;4.77;;;4.20;;
19456;SDS011;9867;48.094;11.478;2023-07-13T04:08:52;4.40;;;4.10;;
19456;SDS011;9867;48.094;11.478;2023-07-13T04:11:24;4.73;;;4.20;;
19456;SDS011;9867;48.094;11.478;2023-07-13T04:13:55;4.30;;;3.90;;
19456;SDS011;9867;48.094;11.478;2023-07-13T04:16:24;4.40;;;3.93;;
19456;SDS011;9867;48.094;11.478;2023-07-13T04:18:53;3.97;;;3.57;;
19456;SDS011;9867;48.094;11.478;2023-07-13T04:21:26;5.13;;;3.87;;
19456;SDS011;9867;48.094;11.478;2023-07-13T04:23:55;3.93;;;3.57;;
19456;SDS011;9867;48.094;11.478;2023-07-13T04:26:23;4.00;;;3.60;;
19456;SDS011;9867;48.094;11.478;2023-07-13T04:28:51;5.20;;;3.90;;
19456;SDS011;9867;48.094;11.478;2023-07-13T04:31:19;4.07;;;3.40;;
19456;SDS011;9867;48.094;11.478;2023-07-13T04:33:49;4.50;;;4.10;;
19456;SDS011;9867;48.094;11.478;2023-07-13T04:36:18;5.67;;;3.63;;
19456;SDS011;9867;48.094;11.478;2023-07-13T04:38:46;6.10;;;4.20;;
19456;SDS011;9867;48.094;11.478;2023-07-13T04:41:14;4.17;;;3.73;;
19456;SDS011;9867;48.094;11.478;2023-07-13T04:43:42;7.10;;;3.97;;
19456;SDS011;9867;48.094;11.478;2023-07-13T04:46:11;4.63;;;3.70;;
19456;SDS011;9867;48.094;11.478;2023-07-13T04:48:42;4.87;;;3.73;;
19456;SDS011;9867;48.094;11.478;2023-07-13T04:51:12;4.03;;;3.60;;
19456;SDS011;9867;48.094;11.478;2023-07-13T04:53:40;3.83;;;3.40;;
19456;SDS011;9867;48.094;11.478;2023-07-13T04:56:08;3.90;;;3.50;;
19456;SDS011;9867;48.094;11.478;2023-07-13T04:59:15;3.73;;;3.23;;
19456;SDS011;9867;48.094;11.478;2023-07-13T05:01:29;4.07;;;3.40;;
19456;SDS011;9867;48.094;11.478;2023-07-13T05:03:57;4.07;;;3.20;;
19456;SDS011;9867;48.094;11.478;2023-07-13T05:06:27;3.43;;;3.10;;
19456;SDS011;9867;48.094;11.478;2023-07-13T05:08:57;3.43;;;3.13;;
19456;SDS011;9867;48.094;11.478;2023-07-13T05:11:24;3.93;;;3.40;;
19456;SDS011;9867;48.094;11.478;2023-07-13T05:13:52;4.23;;;3.20;;
19456;SDS011;9867;48.094;11.478;2023-07-13T05:16:20;5.00;;;3.23;;
19456;SDS011;9867;48.094;11.478;2023-07-13T05:18:48;5.57;;;3.00;;
19456;SDS011;9867;48.094;11.478;2023-07-13T05:21:17;4.27;;;3.33;;
19456;SDS011;9867;48.094;11.478;2023-07-13T05:23:46;3.50;;;3.20;;
19456;SDS011;9867;48.094;11.478;2023-07-13T05:26:15;5.00;;;3.30;;
19456;SDS011;9867;48.094;11.478;2023-07-13T05:28:43;4.87;;;3.43;;
19456;SDS011;9867;48.094;11.478;2023-07-13T05:31:12;8.03;;;4.07;;
19456;SDS011;9867;48.094;11.478;2023-07-13T05:33:41;4.47;;;3.40;;
19456;SDS011;9867;48.094;11.478;2023-07-13T05:36:09;4.80;;;3.00;;
19456;SDS011;9867;48.094;11.478;2023-07-13T05:38:37;3.50;;;3.10;;
19456;SDS011;9867;48.094;11.478;2023-07-13T05:41:07;4.27;;;3.20;;
19456;SDS011;9867;48.094;11.478;2023-07-13T05:43:36;4.87;;;3.40;;
19456;SDS011;9867;48.094;11.478;2023-07-13T05:46:04;6.10;;;3.90;;
19456;SDS011;9867;48.094;11.478;2023-07-13T05:48:32;3.27;;;2.97;;
19456;SDS011;9867;48.094;11.478;2023-07-13T05:51:00;4.53;;;3.10;;
19456;SDS011;9867;48.094;11.478;2023-07-13T05:53:29;4.67;;;3.00;;
19456;SDS011;9867;48.094;11.478;2023-07-13T05:55:57;6.03;;;3.67;;
19456;SDS011;9867;48.094;11.478;2023-07-13T05:58:29;4.63;;;3.20;;
19456;SDS011;9867;48.094;11.478;2023-07-13T06:00:59;3.27;;;2.77;;
19456;SDS011;9867;48.094;11.478;2023-07-13T06:03:28;3.13;;;2.83;;
19456;SDS011;9867;48.094;11.478;2023-07-13T06:05:56;3.87;;;3.00;;
19456;SDS011;9867;48.094;11.478;2023-07-13T06:08:26;4.53;;;3.20;;
19456;SDS011;9867;48.094;11.478;2023-07-13T06:10:58;5.50;;;2.90;;
19456;SDS011;9867;48.094;11.478;2023-07-13T06:13:31;4.17;;;3.20;;
19456;SDS011;9867;48.094;11.478;2023-07-13T06:15:59;3.43;;;2.90;;
19456;SDS011;9867;48.094;11.478;2023-07-13T06:18:30;3.63;;;3.20;;
19456;SDS011;9867;48.094;11.478;2023-07-13T06:20:59;3.57;;;3.10;;
19456;SDS011;9867;48.094;11.478;2023-07-13T06:23:27;4.00;;;2.90;;
19456;SDS011;9867;48.094;11.478;2023-07-13T06:25:56;5.00;;;2.90;;
19456;SDS011;9867;48.094;11.478;2023-07-13T06:28:24;5.67;;;2.77;;
19456;SDS011;9867;48.094;11.478;2023-07-13T06:30:53;6.90;;;2.90;;
19456;SDS011;9867;48.094;11.478;2023-07-13T06:33:21;3.20;;;2.83;;
19456;SDS011;9867;48.094;11.478;2023-07-13T06:35:49;3.37;;;2.93;;
19456;SDS011;9867;48.094;11.478;2023-07-13T06:38:17;4.13;;;2.73;;
19456;SDS011;9867;48.094;11.478;2023-07-13T06:40:45;5.50;;;3.73;;
19456;SDS011;9867;48.094;11.478;2023-07-13T06:43:13;3.97;;;2.90;;
19456;SDS011;9867;48.094;11.478;2023-07-13T06:45:43;3.30;;;2.93;;
19456;SDS011;9867;48.094;11.478;2023-07-13T06:48:15;3.57;;;2.90;;
19456;SDS011;9867;48.094;11.478;2023-07-13T06:50:43;5.37;;;3.00;;
19456;SDS011;9867;48.094;11.478;2023-07-13T06:53:12;4.37;;;2.90;;
19456;SDS011;9867;48.094;11.478;2023-07-13T06:55:40;3.23;;;2.93;;
19456;SDS011;9867;48.094;11.478;2023-07-13T06:58:11;2.97;;;2.70;;
19456;SDS011;9867;48.094;11.478;2023-07-13T07:00:39;4.23;;;2.97;;
19456;SDS011;9867;48.094;11.478;2023-07-13T07:03:07;4.07;;;2.80;;
19456;SDS011;9867;48.094;11.478;2023-07-13T07:05:37;5.07;;;2.90;;
19456;SDS011;9867;48.094;11.478;2023-07-13T07:08:05;6.47;;;2.93;;
19456;SDS011;9867;48.094;11.478;2023-07-13T07:10:33;5.67;;;2.80;;
19456;SDS011;9867;48.094;11.478;2023-07-13T07:13:03;4.90;;;3.07;;
19456;SDS011;9867;48.094;11.478;2023-07-13T07:15:31;3.83;;;3.03;;
19456;SDS011;9867;48.094;11.478;2023-07-13T07:17:59;5.97;;;2.90;;
19456;SDS011;9867;48.094;11.478;2023-07-13T07:20:27;3.93;;;2.90;;
19456;SDS011;9867;48.094;11.478;2023-07-13T07:22:58;6.73;;;3.20;;
19456;SDS011;9867;48.094;11.478;2023-07-13T07:25:26;2.77;;;2.57;;
19456;SDS011;9867;48.094;11.478;2023-07-13T07:27:58;5.10;;;2.70;;
19456;SDS011;9867;48.094;11.478;2023-07-13T07:30:29;6.83;;;3.43;;
19456;SDS011;9867;48.094;11.478;2023-07-13T07:33:00;7.00;;;3.17;;
19456;SDS011;9867;48.094;11.478;2023-07-13T07:35:31;3.70;;;2.90;;
19456;SDS011;9867;48.094;11.478;2023-07-13T07:38:06;5.77;;;2.77;;
19456;SDS011;9867;48.094;11.478;2023-07-13T07:40:36;4.97;;;2.90;;
19456;SDS011;9867;48.094;11.478;2023-07-13T07:43:07;5.73;;;2.70;;
19456;SDS011;9867;48.094;11.478;2023-07-13T07:45:36;5.67;;;2.87;;
19456;SDS011;9867;48.094;11.478;2023-07-13T07:48:05;5.17;;;2.80;;
19456;SDS011;9867;48.094;11.478;2023-07-13T07:50:35;5.10;;;2.90;;
19456;SDS011;9867;48.094;11.478;2023-07-13T07:53:06;3.13;;;2.47;;
19456;SDS011;9867;48.094;11.478;2023-07-13T07:55:37;3.73;;;2.90;;
19456;SDS011;9867;48.094;11.478;2023-07-13T07:58:08;4.30;;;2.97;;
19456;SDS011;9867;48.094;11.478;2023-07-13T08:01:02;5.60;;;2.97;;
19456;SDS011;9867;48.094;11.478;2023-07-13T08:03:34;3.27;;;2.80;;
19456;SDS011;9867;48.094;11.478;2023-07-13T08:06:05;3.77;;;3.03;;
19456;SDS011;9867;48.094;11.478;2023-07-13T08:08:37;7.13;;;3.37;;
19456;SDS011;9867;48.094;11.478;2023-07-13T08:11:06;6.40;;;2.90;;
19456;SDS011;9867;48.094;11.478;2023-07-13T08:13:38;6.23;;;3.10;;
19456;SDS011;9867;48.094;11.478;2023-07-13T08:16:06;5.23;;;3.10;;
19456;SDS011;9867;48.094;11.478;2023-07-13T08:18:34;4.07;;;3.10;;
19456;SDS011;9867;48.094;11.478;2023-07-13T08:21:03;5.73;;;3.10;;
19456;SDS011;9867;48.094;11.478;2023-07-13T08:23:32;3.87;;;2.90;;
19456;SDS011;9867;48.094;11.478;2023-07-13T08:26:01;3.93;;;2.93;;
19456;SDS011;9867;48.094;11.478;2023-07-13T08:28:31;4.30;;;3.10;;
19456;SDS011;9867;48.094;11.478;2023-07-13T08:31:00;4.20;;;2.93;;
19456;SDS011;9867;48.094;11.478;2023-07-13T08:33:29;6.07;;;3.10;;
19456;SDS011;9867;48.094;11.478;2023-07-13T08:35:57;7.33;;;3.33;;
19456;SDS011;9867;48.094;11.478;2023-07-13T08:38:25;6.80;;;3.70;;
19456;SDS011;9867;48.094;11.478;2023-07-13T08:40:53;5.67;;;2.97;;
19456;SDS011;9867;48.094;11.478;2023-07-13T08:43:26;4.73;;;2.73;;
19456;SDS011;9867;48.094;11.478;2023-07-13T08:45:59;4.20;;;3.10;;
19456;SDS011;9867;48.094;11.478;2023-07-13T08:48:31;5.83;;;3.00;;
19456;SDS011;9867;48.094;11.478;2023-07-13T08:51:03;6.50;;;3.40;;
19456;SDS011;9867;48.094;11.478;2023-07-13T08:53:40;3.97;;;2.80;;
19456;SDS011;9867;48.094;11.478;2023-07-13T08:56:16;3.23;;;2.80;;
19456;SDS011;9867;48.094;11.478;2023-07-13T08:58:48;4.23;;;2.63;;
19456;SDS011;9867;48.094;11.478;2023-07-13T09:01:22;5.37;;;2.67;;
19456;SDS011;9867;48.094;11.478;2023-07-13T09:03:57;7.17;;;2.50;;
19456;SDS011;9867;48.094;11.478;2023-07-13T09:06:34;5.27;;;2.40;;
19456;SDS011;9867;48.094;11.478;2023-07-13T09:09:09;6.00;;;3.40;;
19456;SDS011;9867;48.094;11.478;2023-07-13T09:11:45;4.50;;;2.50;;
19456;SDS011;9867;48.094;11.478;2023-07-13T09:14:26;5.83;;;2.53;;
19456;SDS011;9867;48.094;11.478;2023-07-13T09:17:03;6.90;;;2.87;;
19456;SDS011;9867;48.094;11.478;2023-07-13T09:19:33;5.70;;;2.60;;
19456;SDS011;9867;48.094;11.478;2023-07-13T09:22:02;5.83;;;2.40;;
19456;SDS011;9867;48.094;11.478;2023-07-13T09:24:38;4.03;;;2.40;;
19456;SDS011;9867;48.094;11.478;2023-07-13T09:27:14;4.47;;;3.00;;
19456;SDS011;9867;48.094;11.478;2023-07-13T09:29:47;3.87;;;2.67;;
19456;SDS011;9867;48.094;11.478;2023-07-13T09:32:18;5.70;;;2.67;;
19456;SDS011;9867;48.094;11.478;2023-07-13T09:34:51;3.63;;;2.50;;
19456;SDS011;9867;48.094;11.478;2023-07-13T09:37:21;4.53;;;2.70;;
19456;SDS011;9867;48.094;11.478;2023-07-13T09:39:51;3.10;;;2.30;;
19456;SDS011;9867;48.094;11.478;2023-07-13T09:42:20;8.17;;;2.40;;
19456;SDS011;9867;48.094;11.478;2023-07-13T09:44:54;6.63;;;2.57;;
19456;SDS011;9867;48.094;11.478;2023-07-13T09:47:25;4.37;;;2.10;;
19456;SDS011;9867;48.094;11.478;2023-07-13T09:49:54;7.13;;;2.23;;
19456;SDS011;9867;48.094;11.478;2023-07-13T09:52:38;5.57;;;2.50;;
19456;SDS011;9867;48.094;11.478;2023-07-13T09:55:22;5.30;;;2.07;;
19456;SDS011;9867;48.094;11.478;2023-07-13T09:57:52;3.07;;;2.00;;
19456;SDS011;9867;48.094;11.478;2023-07-13T10:00:23;3.57;;;2.30;;
19456;SDS011;9867;48.094;11.478;2023-07-13T10:05:42;4.47;;;2.30;;
19456;SDS011;9867;48.094;11.478;2023-07-13T10:08:16;4.43;;;2.30;;
19456;SDS011;9867;48.094;11.478;2023-07-13T10:10:46;3.97;;;2.00;;
19456;SDS011;9867;48.094;11.478;2023-07-13T10:13:24;4.30;;;2.10;;
19456;SDS011;9867;48.094;11.478;2023-07-13T10:15:56;3.03;;;1.77;;
19456;SDS011;9867;48.094;11.478;2023-07-13T10:18:26;2.43;;;1.70;;
19456;SDS011;9867;48.094;11.478;2023-07-13T10:20:58;2.60;;;1.80;;
19456;SDS011;9867;48.094;11.478;2023-07-13T10:23:59;2.20;;;1.90;;
19456;SDS011;9867;48.094;11.478;2023-07-13T10:26:34;4.80;;;2.10;;
19456;SDS011;9867;48.094;11.478;2023-07-13T10:29:04;4.47;;;1.57;;
19456;SDS011;9867;48.094;11.478;2023-07-13T10:31:38;5.70;;;2.00;;
19456;SDS011;9867;48.094;11.478;2023-07-13T10:34:11;2.93;;;1.70;;
19456;SDS011;9867;48.094;11.478;2023-07-13T10:36:41;4.23;;;1.50;;
19456;SDS011;9867;48.094;11.478;2023-07-13T10:39:13;3.63;;;1.80;;
19456;SDS011;9867;48.094;11.478;2023-07-13T10:41:46;4.33;;;1.87;;
19456;SDS011;9867;48.094;11.478;2023-07-13T10:44:21;2.00;;;1.67;;
19456;SDS011;9867;48.094;11.478;2023-07-13T10:46:55;4.97;;;1.90;;
19456;SDS011;9867;48.094;11.478;2023-07-13T10:49:26;4.00;;;1.70;;
19456;SDS011;9867;48.094;11.478;2023-07-13T10:51:57;4.90;;;2.00;;
19456;SDS011;9867;48.094;11.478;2023-07-13T10:54:30;4.10;;;1.80;;
19456;SDS011;9867;48.094;11.478;2023-07-13T10:57:16;3.53;;;1.80;;
19456;SDS011;9867;48.094;11.478;2023-07-13T10:59:47;4.13;;;1.80;;
19456;SDS011;9867;48.094;11.478;2023-07-13T11:02:27;4.83;;;1.97;;
19456;SDS011;9867;48.094;11.478;2023-07-13T11:04:56;4.77;;;2.30;;
19456;SDS011;9867;48.094;11.478;2023-07-13T11:07:25;4.20;;;2.00;;
19456;SDS011;9867;48.094;11.478;2023-07-13T11:09:55;5.33;;;2.30;;
19456;SDS011;9867;48.094;11.478;2023-07-13T11:15:27;4.87;;;1.70;;
19456;SDS011;9867;48.094;11.478;2023-07-13T11:18:03;3.17;;;1.97;;
19456;SDS011;9867;48.094;11.478;2023-07-13T11:20:33;7.50;;;2.30;;
19456;SDS011;9867;48.094;11.478;2023-07-13T11:23:08;3.37;;;1.80;;
19456;SDS011;9867;48.094;11.478;2023-07-13T11:26:00;3.47;;;1.83;;
19456;SDS011;9867;48.094;11.478;2023-07-13T11:28:30;2.97;;;1.60;;
19456;SDS011;9867;48.094;11.478;2023-07-13T11:31:01;5.53;;;1.67;;
19456;SDS011;9867;48.094;11.478;2023-07-13T11:36:31;5.00;;;1.87;;
19456;SDS011;9867;48.094;11.478;2023-07-13T11:39:17;3.93;;;1.90;;
19456;SDS011;9867;48.094;11.478;2023-07-13T11:41:50;2.83;;;1.73;;
19456;SDS011;9867;48.094;11.478;2023-07-13T11:44:22;3.63;;;2.00;;
19456;SDS011;9867;48.094;11.478;2023-07-13T11:46:52;5.20;;;2.03;;
19456;SDS011;9867;48.094;11.478;2023-07-13T11:49:24;3.23;;;2.07;;
19456;SDS011;9867;48.094;11.478;2023-07-13T11:51:53;4.27;;;1.60;;
19456;SDS011;9867;48.094;11.478;2023-07-13T11:54:25;3.40;;;1.90;;
19456;SDS011;9867;48.094;11.478;2023-07-13T11:56:57;4.50;;;2.13;;
19456;SDS011;9867;48.094;11.478;2023-07-13T11:59:29;2.73;;;1.90;;
19456;SDS011;9867;48.094;11.478;2023-07-13T12:01:59;3.43;;;1.63;;
19456;SDS011;9867;48.094;11.478;2023-07-13T12:04:31;4.63;;;1.70;;
19456;SDS011;9867;48.094;11.478;2023-07-13T12:07:05;3.40;;;1.90;;
19456;SDS011;9867;48.094;11.478;2023-07-13T12:09:36;2.47;;;1.60;;
19456;SDS011;9867;48.094;11.478;2023-07-13T12:12:09;3.87;;;1.53;;
19456;SDS011;9867;48.094;11.478;2023-07-13T12:14:39;4.33;;;1.87;;
19456;SDS011;9867;48.094;11.478;2023-07-13T12:17:15;2.73;;;1.80;;
19456;SDS011;9867;48.094;11.478;2023-07-13T12:19:48;3.03;;;1.73;;
19456;SDS011;9867;48.094;11.478;2023-07-13T12:22:18;6.53;;;2.10;;
19456;SDS011;9867;48.094;11.478;2023-07-13T12:24:49;4.50;;;2.07;;
19456;SDS011;9867;48.094;11.478;2023-07-13T12:27:21;5.03;;;2.07;;
19456;SDS011;9867;48.094;11.478;2023-07-13T12:29:52;2.70;;;1.90;;
19456;SDS011;9867;48.094;11.478;2023-07-13T12:32:25;3.43;;;1.60;;
19456;SDS011;9867;48.094;11.478;2023-07-13T12:34:56;6.40;;;1.90;;
19456;SDS011;9867;48.094;11.478;2023-07-13T12:37:41;2.60;;;1.80;;
19456;SDS011;9867;48.094;11.478;2023-07-13T12:40:12;2.20;;;1.50;;
19456;SDS011;9867;48.094;11.478;2023-07-13T12:42:42;3.80;;;2.00;;
19456;SDS011;9867;48.094;11.478;2023-07-13T12:45:14;6.13;;;1.70;;
19456;SDS011;9867;48.094;11.478;2023-07-13T12:47:48;4.70;;;1.97;;
19456;SDS011;9867;48.094;11.478;2023-07-13T12:50:19;3.80;;;1.90;;
19456;SDS011;9867;48.094;11.478;2023-07-13T12:52:50;3.53;;;1.80;;
19456;SDS011;9867;48.094;11.478;2023-07-13T12:55:20;3.37;;;1.90;;
19456;SDS011;9867;48.094;11.478;2023-07-13T12:57:51;2.03;;;1.40;;
19456;SDS011;9867;48.094;11.478;2023-07-13T13:00:23;3.63;;;1.93;;
19456;SDS011;9867;48.094;11.478;2023-07-13T13:02:55;3.53;;;1.90;;
19456;SDS011;9867;48.094;11.478;2023-07-13T13:05:29;3.30;;;2.10;;
19456;SDS011;9867;48.094;11.478;2023-07-13T13:07:58;5.80;;;1.80;;
19456;SDS011;9867;48.094;11.478;2023-07-13T13:10:26;3.17;;;1.83;;
19456;SDS011;9867;48.094;11.478;2023-07-13T13:12:54;5.57;;;2.10;;
19456;SDS011;9867;48.094;11.478;2023-07-13T13:15:22;2.83;;;1.97;;
19456;SDS011;9867;48.094;11.478;2023-07-13T13:17:50;3.17;;;1.83;;
19456;SDS011;9867;48.094;11.478;2023-07-13T13:20:19;3.53;;;1.60;;
19456;SDS011;9867;48.094;11.478;2023-07-13T13:22:50;5.37;;;1.50;;
19456;SDS011;9867;48.094;11.478;2023-07-13T13:25:19;3.40;;;1.60;;
19456;SDS011;9867;48.094;11.478;2023-07-13T13:27:48;2.57;;;1.70;;
19456;SDS011;9867;48.094;11.478;2023-07-13T13:30:17;2.43;;;1.73;;
19456;SDS011;9867;48.094;11.478;2023-07-13T13:32:46;1.93;;;1.73;;
19456;SDS011;9867;48.094;11.478;2023-07-13T13:35:15;2.40;;;1.63;;
19456;SDS011;9867;48.094;11.478;2023-07-13T13:37:45;3.83;;;1.73;;
19456;SDS011;9867;48.094;11.478;2023-07-13T13:40:18;4.30;;;1.53;;
19456;SDS011;9867;48.094;11.478;2023-07-13T13:42:49;3.33;;;1.70;;
19456;SDS011;9867;48.094;11.478;2023-07-13T13:45:19;2.27;;;1.43;;
19456;SDS011;9867;48.094;11.478;2023-07-13T13:47:47;2.63;;;1.77;;
19456;SDS011;9867;48.094;11.478;2023-07-13T13:50:16;3.10;;;1.70;;
19456;SDS011;9867;48.094;11.478;2023-07-13T13:52:48;2.03;;;1.60;;
19456;SDS011;9867;48.094;11.478;2023-07-13T13:55:18;3.33;;;1.73;;
19456;SDS011;9867;48.094;11.478;2023-07-13T13:57:47;2.57;;;1.80;;
19456;SDS011;9867;48.094;11.478;2023-07-13T14:00:16;3.93;;;1.87;;
19456;SDS011;9867;48.094;11.478;2023-07-13T14:02:45;2.40;;;1.60;;
19456;SDS011;9867;48.094;11.478;2023-07-13T14:05:17;3.87;;;1.60;;
19456;SDS011;9867;48.094;11.478;2023-07-13T14:07:48;4.10;;;1.93;;
19456;SDS011;9867;48.094;11.478;2023-07-13T14:10:18;2.83;;;1.70;;
19456;SDS011;9867;48.094;11.478;2023-07-13T14:12:48;4.03;;;1.80;;
19456;SDS011;9867;48.094;11.478;2023-07-13T14:15:20;3.47;;;1.90;;
19456;SDS011;9867;48.094;11.478;2023-07-13T14:17:50;2.43;;;1.50;;
19456;SDS011;9867;48.094;11.478;2023-07-13T14:20:18;2.50;;;1.60;;
19456;SDS011;9867;48.094;11.478;2023-07-13T14:22:48;1.90;;;1.30;;
19456;SDS011;9867;48.094;11.478;2023-07-13T14:25:17;3.37;;;1.70;;
19456;SDS011;9867;48.094;11.478;2023-07-13T14:27:48;2.30;;;1.50;;
19456;SDS011;9867;48.094;11.478;2023-07-13T14:30:20;2.50;;;1.67;;
19456;SDS011;9867;48.094;11.478;2023-07-13T14:32:49;3.70;;;1.60;;
19456;SDS011;9867;48.094;11.478;2023-07-13T14:35:18;3.63;;;1.70;;
19456;SDS011;9867;48.094;11.478;2023-07-13T14:37:50;4.30;;;1.63;;
19456;SDS011;9867;48.094;11.478;2023-07-13T14:40:24;2.13;;;1.47;;
19456;SDS011;9867;48.094;11.478;2023-07-13T14:42:54;2.00;;;1.57;;
19456;SDS011;9867;48.094;11.478;2023-07-13T14:45:22;3.07;;;1.70;;
19456;SDS011;9867;48.094;11.478;2023-07-13T14:47:50;2.67;;;1.47;;
19456;SDS011;9867;48.094;11.478;2023-07-13T14:50:20;3.90;;;1.83;;
19456;SDS011;9867;48.094;11.478;2023-07-13T14:52:52;3.83;;;1.97;;
19456;SDS011;9867;48.094;11.478;2023-07-13T14:55:19;4.00;;;1.87;;
19456;SDS011;9867;48.094;11.478;2023-07-13T14:57:49;3.50;;;1.57;;
19456;SDS011;9867;48.094;11.478;2023-07-13T15:00:18;2.73;;;1.53;;
19456;SDS011;9867;48.094;11.478;2023-07-13T15:02:48;2.93;;;1.40;;
19456;SDS011;9867;48.094;11.478;2023-07-13T15:05:20;2.47;;;1.63;;
19456;SDS011;9867;48.094;11.478;2023-07-13T15:07:51;2.37;;;1.53;;
19456;SDS011;9867;48.094;11.478;2023-07-13T15:10:21;2.90;;;1.57;;
19456;SDS011;9867;48.094;11.478;2023-07-13T15:12:53;2.47;;;1.70;;
19456;SDS011;9867;48.094;11.478;2023-07-13T15:15:25;5.73;;;2.10;;
19456;SDS011;9867;48.094;11.478;2023-07-13T15:17:54;3.60;;;1.33;;
19456;SDS011;9867;48.094;11.478;2023-07-13T15:20:25;2.23;;;1.70;;